createdAt,value
2022-11-05T00:00:37.920Z,100408.72
2022-11-05T00:03:23.783Z,100405.94
2022-11-05T00:06:12.563Z,100403.09
2022-11-05T00:08:59.541Z,100408.72
2022-11-05T00:11:46.666Z,100406.56
2022-11-05T00:14:32.736Z,100406.41
2022-11-05T00:16:59.515Z,100414.00
2022-11-05T00:19:26.257Z,100409.00
2022-11-05T00:22:11.726Z,100402.97
2022-11-05T00:24:56.962Z,100398.59
2022-11-05T00:27:23.829Z,100404.50
2022-11-05T00:29:50.659Z,100398.41
2022-11-05T00:32:17.464Z,100391.69
2022-11-05T00:34:44.367Z,100398.88
2022-11-05T00:37:11.135Z,100387.38
2022-11-05T00:39:37.979Z,100394.72
2022-11-05T00:42:23.452Z,100409.00
2022-11-05T00:45:02.397Z,100395.34
2022-11-05T00:47:51.859Z,100399.59
2022-11-05T00:50:20.735Z,100401.09
2022-11-05T00:53:06.582Z,100399.22
2022-11-05T00:55:41.995Z,100393.47
2022-11-05T00:58:17.688Z,100402.88
2022-11-05T01:00:50.272Z,100397.41
2022-11-05T01:03:19.951Z,100404.16
2022-11-05T01:05:49.370Z,100401.53
2022-11-05T01:08:18.231Z,100403.25
2022-11-05T01:10:51.298Z,100405.56
2022-11-05T01:13:21.084Z,100391.03
2022-11-05T01:15:50.907Z,100400.28
2022-11-05T01:18:19.413Z,100401.09
2022-11-05T01:20:46.576Z,100392.66
2022-11-05T01:23:14.199Z,100387.28
2022-11-05T01:25:42.442Z,100383.16
2022-11-05T01:28:09.974Z,100389.44
2022-11-05T01:30:37.707Z,100382.16
2022-11-05T01:33:04.670Z,100385.94
2022-11-05T01:35:31.651Z,100382.09
2022-11-05T01:38:01.422Z,100370.69
2022-11-05T01:40:28.328Z,100369.06
2022-11-05T01:42:55.177Z,100362.63
2022-11-05T01:45:25.049Z,100369.06
2022-11-05T01:47:51.869Z,100361.72
2022-11-05T01:50:30.692Z,100355.78
2022-11-05T01:53:12.933Z,100360.84
2022-11-05T01:55:55.955Z,100355.53
2022-11-05T01:58:26.377Z,100350.78
2022-11-05T02:00:54.263Z,100354.56
2022-11-05T02:03:21.415Z,100351.41
2022-11-05T02:05:49.991Z,100345.31
2022-11-05T02:08:27.340Z,100344.16
2022-11-05T02:10:54.553Z,100341.47
2022-11-05T02:13:21.435Z,100342.28
2022-11-05T02:16:13.144Z,100342.28
2022-11-05T02:18:58.592Z,100337.06
2022-11-05T02:21:34.697Z,100348.09
2022-11-05T02:24:35.556Z,100346.22
2022-11-05T02:27:37.997Z,100344.94
2022-11-05T02:30:28.238Z,100347.09
2022-11-05T02:33:11.234Z,100345.22
2022-11-05T02:35:47.347Z,100347.09
2022-11-05T02:38:35.835Z,100345.84
2022-11-05T02:41:14.409Z,100340.72
2022-11-05T02:44:13.266Z,100342.34
2022-11-05T02:46:57.998Z,100347.28
2022-11-05T02:50:20.191Z,100346.13
2022-11-05T02:52:57.654Z,100347.44
2022-11-05T02:55:51.490Z,100348.72
2022-11-05T02:58:18.317Z,100347.91
2022-11-05T03:00:50.041Z,100346.47
2022-11-05T03:03:40.287Z,100343.63
2022-11-05T03:25:58.214Z,100334.94
2022-11-05T03:28:30.248Z,100332.09
2022-11-05T03:30:59.341Z,100322.00
2022-11-05T03:33:30.087Z,100333.38
2022-11-05T03:36:00.963Z,100337.47
2022-11-05T03:38:34.746Z,100334.88
2022-11-05T03:41:06.900Z,100326.72
2022-11-05T03:43:38.310Z,100319.38
2022-11-05T03:46:12.466Z,100319.47
2022-11-05T03:48:41.948Z,100316.44
2022-11-05T03:51:12.705Z,100313.00
2022-11-05T03:53:55.774Z,100314.09
2022-11-05T03:56:37.885Z,100314.28
2022-11-05T03:59:07.657Z,100310.59
2022-11-05T04:01:36.993Z,100317.97
2022-11-05T04:04:06.425Z,100312.50
2022-11-05T04:06:51.755Z,100316.81
2022-11-05T04:09:37.092Z,100306.94
2022-11-05T04:12:22.774Z,100306.13
2022-11-05T04:14:49.610Z,100306.84
2022-11-05T04:17:16.501Z,100304.31
2022-11-05T04:20:03.581Z,100315.53
2022-11-05T04:22:51.420Z,100310.22
2022-11-05T04:25:20.274Z,100318.38
2022-11-05T04:27:47.745Z,100315.88
2022-11-05T04:30:19.754Z,100318.47
2022-11-05T04:33:07.010Z,100306.75
2022-11-05T04:35:39.844Z,100317.41
2022-11-05T04:38:09.448Z,100323.81
2022-11-05T04:40:37.061Z,100329.91
2022-11-05T04:43:04.440Z,100327.66
2022-11-05T04:45:34.549Z,100319.72
2022-11-05T04:48:02.562Z,100320.09
2022-11-05T04:50:29.817Z,100313.50
2022-11-05T04:52:56.734Z,100322.00
2022-11-05T04:55:23.832Z,100322.69
2022-11-05T04:57:52.038Z,100317.84
2022-11-05T05:00:20.850Z,100314.09
2022-11-05T05:02:49.024Z,100322.66
2022-11-05T05:05:16.396Z,100314.53
2022-11-05T05:07:43.374Z,100316.94
2022-11-05T05:10:11.386Z,100315.53
2022-11-05T05:12:38.265Z,100315.78
2022-11-05T05:15:05.492Z,100325.72
2022-11-05T05:17:32.339Z,100329.59
2022-11-05T05:20:17.691Z,100326.28
2022-11-05T05:22:44.522Z,100336.59
2022-11-05T05:25:11.342Z,100323.88
2022-11-05T05:27:38.152Z,100340.28
2022-11-05T05:30:05.387Z,100338.75
2022-11-05T05:32:32.220Z,100335.78
2022-11-05T05:34:59.053Z,100343.16
2022-11-05T05:37:25.997Z,100348.44
2022-11-05T05:39:53.700Z,100353.47
2022-11-05T05:42:22.928Z,100356.44
2022-11-05T05:44:49.816Z,100361.00
2022-11-05T05:47:16.640Z,100358.41
2022-11-05T05:49:43.438Z,100367.81
2022-11-05T05:52:10.324Z,100371.25
2022-11-05T05:54:42.255Z,100371.66
2022-11-05T05:57:10.063Z,100369.09
2022-11-05T05:59:36.985Z,100374.00
2022-11-05T06:02:03.908Z,100372.03
2022-11-05T06:04:30.871Z,100376.25
2022-11-05T06:06:57.681Z,100380.91
2022-11-05T06:09:24.976Z,100387.09
2022-11-05T06:11:51.709Z,100388.72
2022-11-05T06:14:18.632Z,100384.59
2022-11-05T06:16:48.087Z,100388.88
2022-11-05T06:19:14.979Z,100387.09
2022-11-05T06:21:41.882Z,100387.44
2022-11-05T06:24:09.147Z,100386.13
2022-11-05T06:26:36.007Z,100384.19
2022-11-05T06:29:02.954Z,100386.63
2022-11-05T06:31:30.843Z,100391.25
2022-11-05T06:33:57.698Z,100391.88
2022-11-05T06:36:24.511Z,100394.06
2022-11-05T06:38:51.292Z,100398.09
2022-11-05T06:41:18.141Z,100398.03
2022-11-05T06:43:45.046Z,100398.38
2022-11-05T06:46:12.136Z,100393.53
2022-11-05T06:48:39.488Z,100400.56
2022-11-05T06:51:08.276Z,100392.19
2022-11-05T06:53:36.029Z,100398.34
2022-11-05T06:56:07.674Z,100389.63
2022-11-05T06:58:34.962Z,100389.81
2022-11-05T07:01:06.010Z,100378.59
2022-11-05T07:03:32.912Z,100385.41
2022-11-05T07:06:04.410Z,100388.09
2022-11-05T07:08:32.685Z,100390.44
2022-11-05T07:11:00.231Z,100391.25
2022-11-05T07:13:27.530Z,100402.00
2022-11-05T07:15:54.631Z,100383.56
2022-11-05T07:18:22.043Z,100384.44
2022-11-05T07:20:49.492Z,100388.31
2022-11-05T07:23:17.189Z,100388.34
2022-11-05T07:25:44.305Z,100381.97
2022-11-05T07:28:11.834Z,100381.56
2022-11-05T07:30:38.731Z,100381.06
2022-11-05T07:33:05.587Z,100374.25
2022-11-05T07:35:32.467Z,100372.00
2022-11-05T07:37:59.326Z,100371.81
2022-11-05T07:40:28.378Z,100379.09
2022-11-05T07:42:57.843Z,100372.41
2022-11-05T07:45:26.383Z,100375.63
2022-11-05T07:48:01.368Z,100363.41
2022-11-05T07:50:36.612Z,100385.06
2022-11-05T07:53:14.826Z,100390.59
2022-11-05T07:55:42.241Z,100382.78
2022-11-05T07:58:09.910Z,100376.91
2022-11-05T08:00:36.878Z,100382.47
2022-11-05T08:03:16.323Z,100380.72
2022-11-05T08:05:46.272Z,100382.09
2022-11-05T08:08:16.126Z,100387.75
2022-11-05T08:10:43.133Z,100380.94
2022-11-05T08:13:12.072Z,100376.91
2022-11-05T08:15:39.703Z,100378.03
2022-11-05T08:18:10.812Z,100374.34
2022-11-05T08:20:38.646Z,100378.13
2022-11-05T08:23:05.955Z,100375.72
2022-11-05T08:25:33.406Z,100372.97
2022-11-05T08:28:02.558Z,100375.63
2022-11-05T08:30:30.952Z,100368.91
2022-11-05T08:33:00.194Z,100378.72
2022-11-05T08:35:27.944Z,100380.72
2022-11-05T08:37:59.403Z,100375.84
2022-11-05T08:40:27.061Z,100377.97
2022-11-05T08:42:57.692Z,100379.09
2022-11-05T08:45:28.264Z,100383.91
2022-11-05T08:48:07.073Z,100386.88
2022-11-05T08:50:34.907Z,100383.09
2022-11-05T08:53:01.870Z,100383.00
2022-11-05T08:55:28.901Z,100372.72
2022-11-05T08:58:01.749Z,100372.47
2022-11-05T09:00:31.001Z,100375.94
2022-11-05T09:03:02.908Z,100368.81
2022-11-05T09:05:30.969Z,100382.63
2022-11-05T09:08:01.378Z,100391.78
2022-11-05T09:10:28.738Z,100380.78
2022-11-05T09:12:55.722Z,100390.44
2022-11-05T09:15:23.499Z,100373.13
2022-11-05T09:17:50.876Z,100376.34
2022-11-05T09:20:17.869Z,100378.19
2022-11-05T09:22:46.333Z,100368.63
2022-11-05T09:25:15.330Z,100370.19
2022-11-05T09:27:42.942Z,100369.25
2022-11-05T09:30:10.754Z,100373.34
2022-11-05T09:32:38.064Z,100378.59
2022-11-05T09:35:05.481Z,100370.34
2022-11-05T09:37:32.665Z,100373.09
2022-11-05T09:39:59.553Z,100368.66
2022-11-05T09:42:33.129Z,100368.81
2022-11-05T09:45:03.608Z,100370.78
2022-11-05T09:47:34.785Z,100367.69
2022-11-05T09:50:06.851Z,100359.22
2022-11-05T09:52:34.639Z,100359.78
2022-11-05T09:55:06.578Z,100360.44
2022-11-05T09:57:44.270Z,100360.41
2022-11-05T10:00:18.409Z,100350.19
2022-11-05T10:02:56.502Z,100352.28
2022-11-05T10:05:27.681Z,100362.78
2022-11-05T10:07:59.506Z,100364.31
2022-11-05T10:10:26.379Z,100373.41
2022-11-05T10:12:57.429Z,100376.91
2022-11-05T10:15:34.687Z,100373.13
2022-11-05T10:18:15.393Z,100350.06
2022-11-05T10:20:43.179Z,100349.34
2022-11-05T10:23:12.870Z,100355.25
2022-11-05T10:25:44.451Z,100360.72
2022-11-05T10:28:19.867Z,100362.97
2022-11-05T10:30:49.758Z,100365.94
2022-11-05T10:33:24.897Z,100361.81
2022-11-05T10:35:55.801Z,100362.50
2022-11-05T10:38:22.641Z,100362.41
2022-11-05T10:41:02.309Z,100355.00
2022-11-05T10:43:54.127Z,100350.75
2022-11-05T10:46:23.872Z,100350.03
2022-11-05T10:49:32.685Z,100351.81
2022-11-05T10:52:06.065Z,100343.56
2022-11-05T10:54:35.367Z,100340.78
2022-11-05T10:57:27.725Z,100341.28
2022-11-05T11:00:19.468Z,100346.44
2022-11-05T11:02:50.091Z,100348.28
2022-11-05T11:05:36.267Z,100345.78
2022-11-05T11:08:11.423Z,100340.81
2022-11-05T11:10:57.558Z,100340.00
2022-11-05T11:13:47.958Z,100348.00
2022-11-05T11:16:26.723Z,100333.34
2022-11-05T11:18:54.639Z,100336.34
2022-11-05T11:21:26.425Z,100339.00
2022-11-05T11:24:07.053Z,100339.94
2022-11-05T11:26:37.340Z,100330.94
2022-11-05T11:29:44.004Z,100323.75
2022-11-05T11:32:18.793Z,100331.72
2022-11-05T11:34:49.909Z,100326.34
2022-11-05T11:37:33.115Z,100331.09
2022-11-05T11:40:17.086Z,100325.28
2022-11-05T11:42:56.808Z,100331.81
2022-11-05T11:45:47.049Z,100318.81
2022-11-05T11:48:21.801Z,100329.84
2022-11-05T11:50:49.718Z,100322.16
2022-11-05T11:53:22.224Z,100328.31
2022-11-05T11:55:55.067Z,100332.03
2022-11-05T11:58:23.822Z,100320.22
2022-11-05T12:01:03.954Z,100329.06
2022-11-05T12:03:45.914Z,100325.50
2022-11-05T12:06:30.409Z,100322.56
2022-11-05T12:09:13.089Z,100328.38
2022-11-05T12:11:50.858Z,100322.81
2022-11-05T12:14:17.698Z,100318.78
2022-11-05T12:16:45.840Z,100329.41
2022-11-05T12:19:45.791Z,100320.38
2022-11-05T12:22:30.634Z,100326.44
2022-11-05T12:25:09.237Z,100331.34
2022-11-05T12:27:36.020Z,100327.63
2022-11-05T12:30:08.824Z,100324.63
2022-11-05T12:32:54.393Z,100331.19
2022-11-05T12:35:23.986Z,100328.94
2022-11-05T12:38:23.401Z,100334.38
2022-11-05T12:41:32.541Z,100335.50
2022-11-05T12:44:20.117Z,100336.59
2022-11-05T12:47:01.949Z,100335.00
2022-11-05T12:49:54.506Z,100343.94
2022-11-05T12:52:52.099Z,100338.44
2022-11-05T12:55:25.729Z,100345.31
2022-11-05T12:57:57.275Z,100347.50
2022-11-05T13:00:26.541Z,100340.16
2022-11-05T13:03:24.090Z,100344.94
2022-11-05T13:06:01.458Z,100344.16
2022-11-05T13:08:52.390Z,100336.47
2022-11-05T13:11:44.693Z,100344.09
2022-11-05T13:14:20.213Z,100342.38
2022-11-05T13:16:51.432Z,100342.69
2022-11-05T13:19:37.657Z,100347.97
2022-11-05T13:22:22.056Z,100356.03
2022-11-05T13:24:49.931Z,100354.84
2022-11-05T13:27:59.696Z,100353.59
2022-11-05T13:30:37.677Z,100351.97
2022-11-05T13:33:15.588Z,100353.28
2022-11-05T13:36:21.944Z,100355.31
2022-11-05T13:39:07.224Z,100356.97
2022-11-05T13:41:57.406Z,100346.59
2022-11-05T13:44:26.939Z,100351.69
2022-11-05T13:46:53.738Z,100355.56
2022-11-05T13:49:32.589Z,100356.25
2022-11-05T13:52:36.582Z,100358.44
2022-11-05T13:55:18.594Z,100364.72
2022-11-05T13:57:53.279Z,100367.44
2022-11-05T14:00:29.223Z,100362.41
2022-11-05T14:03:06.413Z,100365.34
2022-11-05T14:05:39.469Z,100365.81
2022-11-05T14:08:18.791Z,100370.22
2022-11-05T14:10:58.401Z,100369.75
2022-11-05T14:13:44.038Z,100377.78
2022-11-05T14:16:19.571Z,100382.59
2022-11-05T14:19:06.479Z,100379.34
2022-11-05T14:21:47.560Z,100386.09
2022-11-05T14:24:23.270Z,100371.19
2022-11-05T14:27:02.220Z,100381.13
2022-11-05T14:29:42.338Z,100379.81
2022-11-05T14:32:21.232Z,100387.19
2022-11-05T14:34:49.518Z,100381.47
2022-11-05T14:37:23.936Z,100377.31
2022-11-05T14:39:51.406Z,100380.28
2022-11-05T14:42:29.646Z,100376.00
2022-11-05T14:45:05.606Z,100383.94
2022-11-05T14:47:37.553Z,100376.75
2022-11-05T14:50:22.095Z,100382.22
2022-11-05T14:52:57.573Z,100382.38
2022-11-05T14:55:29.691Z,100390.16
2022-11-05T14:57:56.526Z,100392.06
2022-11-05T15:00:29.174Z,100390.34
2022-11-05T15:03:23.910Z,100396.56
2022-11-05T15:05:51.734Z,100394.16
2022-11-05T15:08:37.376Z,100396.69
2022-11-05T15:27:37.837Z,100393.50
2022-11-05T15:30:20.183Z,100402.97
2022-11-05T15:32:47.235Z,100404.44
2022-11-05T15:35:29.210Z,100400.56
2022-11-05T15:38:02.006Z,100405.13
2022-11-05T15:40:33.446Z,100403.78
2022-11-05T15:43:17.735Z,100416.16
2022-11-05T15:46:00.114Z,100407.91
2022-11-05T15:48:27.004Z,100411.59
2022-11-05T15:50:54.042Z,100418.13
2022-11-05T15:53:56.053Z,100419.41
2022-11-05T15:56:23.362Z,100414.47
2022-11-05T15:58:53.771Z,100428.84
2022-11-05T16:01:29.272Z,100433.88
2022-11-05T16:04:17.322Z,100434.41
2022-11-05T16:06:47.790Z,100438.44
2022-11-05T16:09:26.199Z,100438.53
2022-11-05T16:12:18.493Z,100431.88
2022-11-05T16:15:00.091Z,100445.81
2022-11-05T16:17:30.118Z,100455.94
2022-11-05T16:19:57.649Z,100459.16
2022-11-05T16:22:25.510Z,100458.47
2022-11-05T16:24:52.420Z,100458.84
2022-11-05T16:27:22.551Z,100458.47
2022-11-05T16:29:57.447Z,100464.06
2022-11-05T16:32:29.684Z,100463.59
2022-11-05T16:35:00.221Z,100465.72
2022-11-05T16:37:29.488Z,100472.25
2022-11-05T16:39:56.471Z,100479.78
2022-11-05T16:42:23.252Z,100470.38
2022-11-05T16:44:55.314Z,100473.16
2022-11-05T16:47:22.792Z,100471.56
2022-11-05T16:49:50.617Z,100477.00
2022-11-05T16:52:17.860Z,100473.72
2022-11-05T16:54:45.447Z,100481.06
2022-11-05T16:57:21.436Z,100494.44
2022-11-05T16:59:48.309Z,100492.00
2022-11-05T17:02:15.411Z,100488.16
2022-11-05T17:04:42.284Z,100491.31
2022-11-05T17:07:09.119Z,100489.69
2022-11-05T17:09:35.942Z,100490.22
2022-11-05T17:12:03.032Z,100506.38
2022-11-05T17:14:29.870Z,100497.22
2022-11-05T17:16:56.687Z,100501.16
2022-11-05T17:19:23.500Z,100495.59
2022-11-05T17:21:50.544Z,100498.75
2022-11-05T17:24:17.442Z,100497.94
2022-11-05T17:26:44.326Z,100495.59
2022-11-05T17:29:11.346Z,100497.56
2022-11-05T17:31:40.653Z,100499.66
2022-11-05T17:34:08.652Z,100504.75
2022-11-05T17:36:35.522Z,100504.41
2022-11-05T17:39:02.450Z,100493.91
2022-11-05T17:41:29.338Z,100503.50
2022-11-05T17:43:57.656Z,100502.59
2022-11-05T17:46:25.010Z,100497.84
2022-11-05T17:48:51.794Z,100499.00
2022-11-05T17:51:19.900Z,100500.47
2022-11-05T17:53:49.156Z,100508.97
2022-11-05T17:56:32.210Z,100501.44
2022-11-05T17:59:01.466Z,100510.22
2022-11-05T18:01:31.254Z,100516.25
2022-11-05T18:03:59.536Z,100507.53
2022-11-05T18:06:28.198Z,100507.19
2022-11-05T18:08:55.069Z,100514.47
2022-11-05T18:11:21.868Z,100516.53
2022-11-05T18:13:48.712Z,100512.59
2022-11-05T18:16:15.652Z,100517.25
2022-11-05T18:18:42.547Z,100514.97
2022-11-05T18:21:09.322Z,100516.78
2022-11-05T18:23:36.196Z,100523.69
2022-11-05T18:26:11.482Z,100517.22
2022-11-05T18:28:38.749Z,100523.59
2022-11-05T18:31:15.290Z,100515.97
2022-11-05T18:33:44.895Z,100520.19
2022-11-05T18:36:19.442Z,100518.22
2022-11-05T18:38:46.842Z,100529.22
2022-11-05T18:41:14.222Z,100543.28
2022-11-05T18:43:41.606Z,100555.72
2022-11-05T18:46:08.898Z,100552.28
2022-11-05T18:48:36.165Z,100547.44
2022-11-05T18:51:14.892Z,100548.41
2022-11-05T18:53:42.329Z,100547.22
2022-11-05T18:56:18.519Z,100549.75
2022-11-05T18:58:45.830Z,100554.00
2022-11-05T19:01:15.124Z,100556.06
2022-11-05T19:03:42.355Z,100560.81
2022-11-05T19:06:09.666Z,100559.78
2022-11-05T19:08:37.142Z,100570.56
2022-11-05T19:11:24.826Z,100569.53
2022-11-05T19:13:52.523Z,100578.34
2022-11-05T19:16:25.811Z,100579.38
2022-11-05T19:18:53.107Z,100572.44
2022-11-05T19:21:22.793Z,100575.66
2022-11-05T19:23:50.117Z,100574.88
2022-11-05T19:26:23.025Z,100572.66
2022-11-05T19:28:54.206Z,100570.44
2022-11-05T19:31:23.715Z,100575.66
2022-11-05T19:33:52.023Z,100583.31
2022-11-05T19:36:20.783Z,100581.56
2022-11-05T19:38:49.696Z,100594.28
2022-11-05T19:41:19.743Z,100583.06
2022-11-05T19:43:46.860Z,100584.47
2022-11-05T19:46:19.336Z,100589.09
2022-11-05T19:48:46.896Z,100593.63
2022-11-05T19:51:17.090Z,100590.47
2022-11-05T19:53:44.270Z,100591.97
2022-11-05T19:56:14.177Z,100591.66
2022-11-05T19:58:41.795Z,100600.59
2022-11-05T20:01:09.816Z,100598.63
2022-11-05T20:03:37.862Z,100602.41
2022-11-05T20:06:10.143Z,100600.31
2022-11-05T20:08:53.067Z,100606.00
2022-11-05T20:11:24.012Z,100604.97
2022-11-05T20:13:51.005Z,100607.72
2022-11-05T20:16:29.658Z,100598.94
2022-11-05T20:18:57.452Z,100606.78
2022-11-05T20:21:24.254Z,100606.13
2022-11-05T20:23:51.134Z,100599.63
2022-11-05T20:26:18.125Z,100617.25
2022-11-05T20:28:45.721Z,100609.47
2022-11-05T20:31:15.241Z,100610.16
2022-11-05T20:33:43.152Z,100624.63
2022-11-05T20:36:16.441Z,100616.75
2022-11-05T20:38:44.802Z,100620.56
2022-11-05T20:41:12.842Z,100613.63
2022-11-05T20:43:44.114Z,100613.28
2022-11-05T20:46:14.730Z,100619.53
2022-11-05T20:48:42.304Z,100624.84
2022-11-05T20:51:14.685Z,100618.81
2022-11-05T20:53:42.095Z,100615.13
2022-11-05T20:56:09.569Z,100610.50
2022-11-05T20:58:37.834Z,100617.34
2022-11-05T21:01:05.832Z,100617.91
2022-11-05T21:03:32.710Z,100623.94
2022-11-05T21:06:04.580Z,100629.94
2022-11-05T21:08:32.587Z,100620.22
2022-11-05T21:10:59.814Z,100617.09
2022-11-05T21:13:27.628Z,100620.94
2022-11-05T21:15:57.974Z,100617.47
2022-11-05T21:18:30.689Z,100618.72
2022-11-05T21:20:58.052Z,100623.72
2022-11-05T21:23:24.929Z,100631.34
2022-11-05T21:25:51.756Z,100629.59
2022-11-05T21:28:18.639Z,100624.28
2022-11-05T21:30:46.611Z,100632.38
2022-11-05T21:33:14.778Z,100629.72
2022-11-05T21:35:47.017Z,100628.56
2022-11-05T21:38:16.203Z,100623.72
2022-11-05T21:40:43.390Z,100623.44
2022-11-05T21:43:10.967Z,100621.03
2022-11-05T21:45:39.891Z,100624.63
2022-11-05T21:48:07.604Z,100626.22
2022-11-05T21:50:53.864Z,100623.34
2022-11-05T21:53:39.139Z,100622.09
2022-11-05T21:56:26.560Z,100632.38
2022-11-05T21:59:11.972Z,100627.53
2022-11-05T22:01:38.981Z,100626.94
2022-11-05T22:04:05.882Z,100626.94
2022-11-05T22:06:33.432Z,100626.00
2022-11-05T22:09:00.379Z,100631.34
2022-11-05T22:11:27.297Z,100630.31
2022-11-05T22:13:54.169Z,100621.72
2022-11-05T22:16:21.006Z,100622.75
2022-11-05T22:18:47.962Z,100622.53
2022-11-05T22:21:19.134Z,100628.09
2022-11-05T22:23:46.212Z,100631.78
2022-11-05T22:26:13.061Z,100631.44
2022-11-05T22:28:39.841Z,100627.63
2022-11-05T22:31:17.218Z,100636.91
2022-11-05T22:33:44.502Z,100625.31
2022-11-05T22:36:11.753Z,100626.59
2022-11-05T22:38:39.495Z,100627.38
2022-11-05T22:41:08.195Z,100627.38
2022-11-05T22:43:35.243Z,100621.13
2022-11-05T22:46:07.024Z,100615.81
2022-11-05T22:48:36.218Z,100630.38
2022-11-05T22:51:05.476Z,100618.34
2022-11-05T22:53:34.153Z,100619.84
2022-11-05T22:56:12.357Z,100626.31
2022-11-05T22:58:39.335Z,100639.00
2022-11-05T23:01:08.273Z,100643.03
2022-11-05T23:03:35.603Z,100645.72
2022-11-05T23:06:04.734Z,100638.09
2022-11-05T23:08:50.679Z,100643.72
2022-11-05T23:11:41.274Z,100649.03
2022-11-05T23:14:10.724Z,100648.34
2022-11-05T23:16:56.711Z,100655.97
2022-11-05T23:19:42.373Z,100653.22
2022-11-05T23:22:33.399Z,100666.53
2022-11-05T23:25:00.220Z,100657.94
2022-11-05T23:27:32.696Z,100654.50
2022-11-05T23:30:01.195Z,100633.78
2022-11-05T23:32:30.622Z,100651.38
2022-11-05T23:34:58.958Z,100644.25
2022-11-05T23:37:48.460Z,100650.34
2022-11-05T23:40:21.455Z,100652.19
2022-11-05T23:43:07.445Z,100650.91
2022-11-05T23:45:55.137Z,100648.38
2022-11-05T23:48:33.060Z,100650.56
2022-11-05T23:51:06.582Z,100657.84
2022-11-05T23:53:36.118Z,100657.63
2022-11-05T23:56:08.825Z,100657.03
2022-11-05T23:58:36.998Z,100657.00
